Página principal
METAR-TAF:

METAR-TAF

Aeroportos :

Aeroporto Internacional de Bagdad

Bagdá, Iraque

latitude: 33-15-45N, longitude: 44-14-04E, altura: 35 m

Observação actual do tempo

O boletim foi feito há 9 minutos, às 20:00 UTC
Vento 13 kt de norte
Temperatura 16°C
Humidade 68%
Pressão 1005 hPa
Visibilidade 10 km ou mais
Poucas nuvensa uma altura de 2500 ft, Cumulonimbus.
Nuvens fragmentadasa uma altura de 10000 ft
aguaceiros fracos de chuva

METAR: ORBI 252000Z 01013KT 9999 -SHRA FEW025CB BKN100 16/10 Q1005 NOSIG

Hora: 23:09 (20:09 UTC)

Previsão

O boletim foi feito há 4 horas e 9 minutos, às 16:00 UTC
Previsão válida de 25 às 18 UTC a 26 às 18 UTC
Vento 8 kt de nor-noroeste
Visibilidade: 8000 m
Nuvens dispersasa uma altura de 3000 ft
Nuvens fragmentadasa uma altura de 6000 ft
Temporariamente
de 25 às 23 UTC a 26 às 10 UTC
Poucas nuvensa uma altura de 2500 ft, Cumulonimbus.

TAF: ORBI 251600Z 2518/2618 33008KT 8000 SCT030 BKN060 TEMPO 2523/2610 -TSSHRA FEW025CB

Observações e previsões do tempo de mais de 4000 aeroportos (mensagens METAR e TAF).

As estações disponíveis são os pontos amarelos e vermelhos sobre o mapa.

Mova o rato sobre o mapa para ver o nome da estação.

Depois clique no ponto para visualizar as observações e previsões meteorológicas.

Para alterar o mapa : clique nos botões verdes com uma cruz preta para aumentar o zoom; no botão verde com uma pitada de zoom; ou nas setas verdes para mapas adjacentes.


METAR-TAF: